This is the latest recevied weather packets stored in our database for station/object KC2WGU. If no packets are shown the sender has not sent any weather packets the latest 1 day(s).
| Time | Temp. | Humidity | Pressure | Rain* | Wind** | Luminosity | Snow |
|---|---|---|---|---|---|---|---|
| 1778002220 | 25° C | 41% | 1002.3 hPa | 0 mm | 1.34 m/s, 208° | 0 W/m² | - |
| 1778001624 | 25° C | 41% | 1002.1 hPa | 0 mm | 1.34 m/s, 208° | 0 W/m² | - |
| 1778001020 | 25° C | 43% | 1002.2 hPa | 0 mm | 1.34 m/s, 208° | 0 W/m² | - |
| 1778000421 | 25° C | 43% | 1002.6 hPa | 0 mm | 1.34 m/s, 208° | 0 W/m² | - |
| 1777999820 | 25.56° C | 43% | 1002.6 hPa | 0 mm | 1.34 m/s, 208° | 0 W/m² | - |
| 1777999221 | 25.56° C | 42% | 1002.9 hPa | 0 mm | 1.34 m/s, 208° | 0 W/m² | - |
| 1777998621 | 25° C | 43% | 1002.9 hPa | 0 mm | 1.34 m/s, 208° | 0 W/m² | - |
| 1777998020 | 25.56° C | 43% | 1003.1 hPa | 0 mm | 1.34 m/s, 208° | 0 W/m² | - |
| 1777997421 | 25° C | 47% | 1003 hPa | 0 mm | 1.34 m/s, 208° | 0 W/m² | - |
| 1777996820 | 25° C | 46% | 1003.1 hPa | 0 mm | 1.34 m/s, 208° | 0 W/m² | - |
| 1777996219 | 24.44° C | 47% | 1003.3 hPa | 0 mm | 1.34 m/s, 208° | 0 W/m² | - |
| 1777995620 | 23.89° C | 48% | 1003.3 hPa | 0 mm | 1.34 m/s, 208° | 0 W/m² | - |
| 1777995020 | 23.33° C | 50% | 1003.4 hPa | 0 mm | 1.34 m/s, 208° | 0 W/m² | - |
| 1777994420 | 23.33° C | 49% | 1003.4 hPa | 0 mm | 1.34 m/s, 208° | 0 W/m² | - |
| 1777993820 | 22.78° C | 52% | 1003.7 hPa | 0 mm | 1.34 m/s, 208° | 0 W/m² | - |
| 1777993220 | 22.22° C | 53% | 1003.6 hPa | 0 mm | 1.34 m/s, 208° | 0 W/m² | - |
| 1777992620 | 22.22° C | 55% | 1003.6 hPa | 0 mm | 1.34 m/s, 208° | 0 W/m² | - |
| 1777992020 | 21.67° C | 56% | 1003.7 hPa | 0 mm | 1.34 m/s, 208° | 0 W/m² | - |
| 1777991420 | 21.67° C | 56% | 1004 hPa | 0 mm | 1.34 m/s, 208° | 0 W/m² | - |
| 1777990820 | 21.11° C | 57% | 1004 hPa | 0 mm | 1.34 m/s, 208° | 0 W/m² | - |
| 1777990220 | 21.11° C | 56% | 1004.1 hPa | 0 mm | 1.34 m/s, 208° | 0 W/m² | - |
| 1777989621 | 20.56° C | 59% | 1004.1 hPa | 0 mm | 1.34 m/s, 208° | 0 W/m² | - |
| 1777989019 | 19.44° C | 62% | 1004.1 hPa | 0 mm | 1.34 m/s, 208° | 0 W/m² | - |
| 1777988420 | 18.89° C | 61% | 1004.3 hPa | 0 mm | 1.34 m/s, 208° | 0 W/m² | - |
| 1777987832 | 18.89° C | 60% | 1004.6 hPa | 0 mm | 1.34 m/s, 208° | 0 W/m² | - |
* Rain latest hour (hover to see other rain measurements)
** Current wind speed in m/s (hover to see current wind gust speed)